sensor_id;sensor_type;location;lat;lon;timestamp;P1;durP1;ratioP1;P2;durP2;ratioP2
14316;SDS011;7242;50.858;6.586;2023-02-11T00:01:40;25.10;;;18.33;;
14316;SDS011;7242;50.858;6.586;2023-02-11T00:04:40;24.03;;;18.07;;
14316;SDS011;7242;50.858;6.586;2023-02-11T00:07:41;22.70;;;18.13;;
14316;SDS011;7242;50.858;6.586;2023-02-11T00:10:42;22.17;;;18.27;;
14316;SDS011;7242;50.858;6.586;2023-02-11T00:13:45;22.23;;;18.27;;
14316;SDS011;7242;50.858;6.586;2023-02-11T00:16:47;25.87;;;18.33;;
14316;SDS011;7242;50.858;6.586;2023-02-11T00:19:51;20.30;;;17.63;;
14316;SDS011;7242;50.858;6.586;2023-02-11T00:22:52;23.53;;;18.17;;
14316;SDS011;7242;50.858;6.586;2023-02-11T00:25:53;23.37;;;18.63;;
14316;SDS011;7242;50.858;6.586;2023-02-11T00:28:53;24.20;;;18.77;;
14316;SDS011;7242;50.858;6.586;2023-02-11T00:31:56;25.50;;;18.47;;
14316;SDS011;7242;50.858;6.586;2023-02-11T00:34:57;24.10;;;18.23;;
14316;SDS011;7242;50.858;6.586;2023-02-11T00:37:58;22.17;;;18.07;;
14316;SDS011;7242;50.858;6.586;2023-02-11T00:40:58;25.77;;;19.53;;
14316;SDS011;7242;50.858;6.586;2023-02-11T00:44:00;25.53;;;18.57;;
14316;SDS011;7242;50.858;6.586;2023-02-11T00:47:01;22.50;;;17.80;;
14316;SDS011;7242;50.858;6.586;2023-02-11T00:50:02;24.37;;;18.53;;
14316;SDS011;7242;50.858;6.586;2023-02-11T00:53:04;24.40;;;18.93;;
14316;SDS011;7242;50.858;6.586;2023-02-11T00:56:06;24.63;;;18.83;;
14316;SDS011;7242;50.858;6.586;2023-02-11T00:59:06;24.70;;;19.20;;
14316;SDS011;7242;50.858;6.586;2023-02-11T01:02:08;26.17;;;19.30;;
14316;SDS011;7242;50.858;6.586;2023-02-11T01:05:09;24.20;;;19.40;;
14316;SDS011;7242;50.858;6.586;2023-02-11T01:08:10;23.97;;;19.80;;
14316;SDS011;7242;50.858;6.586;2023-02-11T01:11:12;25.80;;;19.87;;
14316;SDS011;7242;50.858;6.586;2023-02-11T01:14:18;26.30;;;20.53;;
14316;SDS011;7242;50.858;6.586;2023-02-11T01:17:19;28.07;;;21.80;;
14316;SDS011;7242;50.858;6.586;2023-02-11T01:20:24;26.83;;;21.10;;
14316;SDS011;7242;50.858;6.586;2023-02-11T01:23:26;27.80;;;21.13;;
14316;SDS011;7242;50.858;6.586;2023-02-11T01:26:27;29.60;;;22.90;;
14316;SDS011;7242;50.858;6.586;2023-02-11T01:29:30;31.10;;;22.70;;
14316;SDS011;7242;50.858;6.586;2023-02-11T01:32:31;27.67;;;22.43;;
14316;SDS011;7242;50.858;6.586;2023-02-11T01:35:32;30.07;;;23.83;;
14316;SDS011;7242;50.858;6.586;2023-02-11T01:38:33;32.27;;;24.33;;
14316;SDS011;7242;50.858;6.586;2023-02-11T01:41:34;29.87;;;23.73;;
14316;SDS011;7242;50.858;6.586;2023-02-11T01:44:36;33.30;;;23.57;;
14316;SDS011;7242;50.858;6.586;2023-02-11T01:47:38;32.63;;;24.73;;
14316;SDS011;7242;50.858;6.586;2023-02-11T01:50:39;32.90;;;24.77;;
14316;SDS011;7242;50.858;6.586;2023-02-11T01:53:42;30.60;;;23.87;;
14316;SDS011;7242;50.858;6.586;2023-02-11T01:57:02;27.50;;;22.70;;
14316;SDS011;7242;50.858;6.586;2023-02-11T02:00:34;35.00;;;23.73;;
14316;SDS011;7242;50.858;6.586;2023-02-11T02:03:38;27.83;;;22.37;;
14316;SDS011;7242;50.858;6.586;2023-02-11T02:06:44;29.23;;;22.93;;
14316;SDS011;7242;50.858;6.586;2023-02-11T02:09:57;30.13;;;23.00;;
14316;SDS011;7242;50.858;6.586;2023-02-11T02:13:03;28.87;;;23.03;;
14316;SDS011;7242;50.858;6.586;2023-02-11T02:16:04;31.33;;;23.93;;
14316;SDS011;7242;50.858;6.586;2023-02-11T02:22:34;30.57;;;23.60;;
14316;SDS011;7242;50.858;6.586;2023-02-11T02:26:13;31.17;;;23.90;;
14316;SDS011;7242;50.858;6.586;2023-02-11T02:36:13;31.33;;;23.43;;
14316;SDS011;7242;50.858;6.586;2023-02-11T02:39:22;27.83;;;21.63;;
14316;SDS011;7242;50.858;6.586;2023-02-11T02:42:25;32.20;;;22.13;;
14316;SDS011;7242;50.858;6.586;2023-02-11T02:45:27;28.23;;;21.20;;
14316;SDS011;7242;50.858;6.586;2023-02-11T02:48:31;29.57;;;22.00;;
14316;SDS011;7242;50.858;6.586;2023-02-11T02:58:02;30.13;;;22.50;;
14316;SDS011;7242;50.858;6.586;2023-02-11T03:01:22;29.33;;;22.30;;
14316;SDS011;7242;50.858;6.586;2023-02-11T03:07:54;30.87;;;22.60;;
14316;SDS011;7242;50.858;6.586;2023-02-11T03:11:05;31.30;;;22.97;;
14316;SDS011;7242;50.858;6.586;2023-02-11T03:14:09;30.43;;;21.90;;
14316;SDS011;7242;50.858;6.586;2023-02-11T03:17:13;31.50;;;22.50;;
14316;SDS011;7242;50.858;6.586;2023-02-11T03:20:16;29.63;;;21.70;;
14316;SDS011;7242;50.858;6.586;2023-02-11T03:23:33;30.93;;;22.60;;
14316;SDS011;7242;50.858;6.586;2023-02-11T03:26:52;35.37;;;22.63;;
14316;SDS011;7242;50.858;6.586;2023-02-11T03:30:00;32.50;;;21.90;;
14316;SDS011;7242;50.858;6.586;2023-02-11T03:33:11;32.53;;;22.00;;
14316;SDS011;7242;50.858;6.586;2023-02-11T03:36:18;32.23;;;22.80;;
14316;SDS011;7242;50.858;6.586;2023-02-11T03:39:50;32.20;;;22.97;;
14316;SDS011;7242;50.858;6.586;2023-02-11T03:42:56;28.10;;;21.47;;
14316;SDS011;7242;50.858;6.586;2023-02-11T03:46:04;30.57;;;22.47;;
14316;SDS011;7242;50.858;6.586;2023-02-11T03:49:08;33.87;;;23.70;;
14316;SDS011;7242;50.858;6.586;2023-02-11T03:52:12;30.67;;;22.13;;
14316;SDS011;7242;50.858;6.586;2023-02-11T03:55:16;32.23;;;22.90;;
14316;SDS011;7242;50.858;6.586;2023-02-11T03:58:18;30.33;;;22.17;;
14316;SDS011;7242;50.858;6.586;2023-02-11T04:01:19;31.20;;;22.20;;
14316;SDS011;7242;50.858;6.586;2023-02-11T04:04:20;28.50;;;21.93;;
14316;SDS011;7242;50.858;6.586;2023-02-11T04:07:20;33.07;;;21.80;;
14316;SDS011;7242;50.858;6.586;2023-02-11T04:10:25;29.87;;;21.20;;
14316;SDS011;7242;50.858;6.586;2023-02-11T04:13:26;30.57;;;21.20;;
14316;SDS011;7242;50.858;6.586;2023-02-11T04:16:27;32.80;;;22.93;;
14316;SDS011;7242;50.858;6.586;2023-02-11T04:19:29;29.17;;;22.37;;
14316;SDS011;7242;50.858;6.586;2023-02-11T04:22:30;30.40;;;22.67;;
14316;SDS011;7242;50.858;6.586;2023-02-11T04:25:31;34.93;;;24.00;;
14316;SDS011;7242;50.858;6.586;2023-02-11T04:28:32;31.17;;;22.73;;
14316;SDS011;7242;50.858;6.586;2023-02-11T04:31:33;30.00;;;22.43;;
14316;SDS011;7242;50.858;6.586;2023-02-11T04:34:34;31.60;;;21.83;;
14316;SDS011;7242;50.858;6.586;2023-02-11T04:37:35;31.47;;;23.27;;
14316;SDS011;7242;50.858;6.586;2023-02-11T04:40:35;31.60;;;22.77;;
14316;SDS011;7242;50.858;6.586;2023-02-11T04:43:36;33.80;;;22.57;;
14316;SDS011;7242;50.858;6.586;2023-02-11T04:46:37;32.73;;;22.57;;
14316;SDS011;7242;50.858;6.586;2023-02-11T04:49:38;29.17;;;21.17;;
14316;SDS011;7242;50.858;6.586;2023-02-11T04:52:39;34.17;;;23.27;;
14316;SDS011;7242;50.858;6.586;2023-02-11T04:55:39;32.07;;;22.77;;
14316;SDS011;7242;50.858;6.586;2023-02-11T04:58:40;32.67;;;23.83;;
14316;SDS011;7242;50.858;6.586;2023-02-11T05:01:41;35.00;;;24.40;;
14316;SDS011;7242;50.858;6.586;2023-02-11T05:04:42;34.43;;;24.33;;
14316;SDS011;7242;50.858;6.586;2023-02-11T05:07:43;33.93;;;24.60;;
14316;SDS011;7242;50.858;6.586;2023-02-11T05:10:46;35.90;;;25.60;;
14316;SDS011;7242;50.858;6.586;2023-02-11T05:13:47;35.60;;;24.17;;
14316;SDS011;7242;50.858;6.586;2023-02-11T05:16:48;38.30;;;25.30;;
14316;SDS011;7242;50.858;6.586;2023-02-11T05:19:49;40.67;;;25.57;;
14316;SDS011;7242;50.858;6.586;2023-02-11T05:22:49;35.77;;;24.90;;
14316;SDS011;7242;50.858;6.586;2023-02-11T05:25:50;36.27;;;24.57;;
14316;SDS011;7242;50.858;6.586;2023-02-11T05:28:51;34.87;;;24.23;;
14316;SDS011;7242;50.858;6.586;2023-02-11T05:31:52;33.77;;;24.07;;
14316;SDS011;7242;50.858;6.586;2023-02-11T05:34:53;35.30;;;24.13;;
14316;SDS011;7242;50.858;6.586;2023-02-11T05:37:54;35.27;;;23.70;;
14316;SDS011;7242;50.858;6.586;2023-02-11T05:40:54;34.13;;;23.70;;
14316;SDS011;7242;50.858;6.586;2023-02-11T05:43:55;30.50;;;23.50;;
14316;SDS011;7242;50.858;6.586;2023-02-11T05:46:56;32.50;;;23.40;;
14316;SDS011;7242;50.858;6.586;2023-02-11T05:49:57;37.03;;;25.97;;
14316;SDS011;7242;50.858;6.586;2023-02-11T05:52:58;33.70;;;25.33;;
14316;SDS011;7242;50.858;6.586;2023-02-11T05:55:58;36.43;;;24.83;;
14316;SDS011;7242;50.858;6.586;2023-02-11T05:58:59;35.57;;;24.87;;
14316;SDS011;7242;50.858;6.586;2023-02-11T06:02:00;37.43;;;25.63;;
14316;SDS011;7242;50.858;6.586;2023-02-11T06:05:01;34.97;;;24.70;;
14316;SDS011;7242;50.858;6.586;2023-02-11T06:08:02;32.20;;;24.00;;
14316;SDS011;7242;50.858;6.586;2023-02-11T06:11:03;31.93;;;24.20;;
14316;SDS011;7242;50.858;6.586;2023-02-11T06:14:04;33.83;;;24.97;;
14316;SDS011;7242;50.858;6.586;2023-02-11T06:17:04;33.70;;;24.50;;
14316;SDS011;7242;50.858;6.586;2023-02-11T06:20:06;31.43;;;23.40;;
14316;SDS011;7242;50.858;6.586;2023-02-11T06:23:07;34.07;;;24.40;;
14316;SDS011;7242;50.858;6.586;2023-02-11T06:26:09;35.73;;;24.13;;
14316;SDS011;7242;50.858;6.586;2023-02-11T06:29:17;39.10;;;24.63;;
14316;SDS011;7242;50.858;6.586;2023-02-11T06:32:18;33.83;;;25.20;;
14316;SDS011;7242;50.858;6.586;2023-02-11T06:35:19;32.63;;;23.87;;
14316;SDS011;7242;50.858;6.586;2023-02-11T06:38:20;33.83;;;24.53;;
14316;SDS011;7242;50.858;6.586;2023-02-11T06:41:21;34.40;;;24.60;;
14316;SDS011;7242;50.858;6.586;2023-02-11T06:44:22;30.47;;;22.63;;
14316;SDS011;7242;50.858;6.586;2023-02-11T06:47:23;32.47;;;24.07;;
14316;SDS011;7242;50.858;6.586;2023-02-11T06:50:23;28.20;;;22.30;;
14316;SDS011;7242;50.858;6.586;2023-02-11T06:53:24;34.63;;;24.07;;
14316;SDS011;7242;50.858;6.586;2023-02-11T06:56:25;31.17;;;23.17;;
14316;SDS011;7242;50.858;6.586;2023-02-11T06:59:29;36.40;;;24.77;;
14316;SDS011;7242;50.858;6.586;2023-02-11T07:02:30;28.80;;;24.13;;
14316;SDS011;7242;50.858;6.586;2023-02-11T07:05:30;35.13;;;24.97;;
14316;SDS011;7242;50.858;6.586;2023-02-11T07:08:33;32.73;;;24.90;;
14316;SDS011;7242;50.858;6.586;2023-02-11T07:11:35;32.47;;;24.53;;
14316;SDS011;7242;50.858;6.586;2023-02-11T07:14:36;38.20;;;26.53;;
14316;SDS011;7242;50.858;6.586;2023-02-11T07:17:37;35.00;;;25.63;;
14316;SDS011;7242;50.858;6.586;2023-02-11T07:20:37;31.60;;;25.83;;
14316;SDS011;7242;50.858;6.586;2023-02-11T07:23:38;37.60;;;26.83;;
14316;SDS011;7242;50.858;6.586;2023-02-11T07:26:40;37.00;;;26.83;;
14316;SDS011;7242;50.858;6.586;2023-02-11T07:29:41;35.20;;;25.00;;
14316;SDS011;7242;50.858;6.586;2023-02-11T07:32:42;37.83;;;25.97;;
14316;SDS011;7242;50.858;6.586;2023-02-11T07:35:43;33.97;;;25.60;;
14316;SDS011;7242;50.858;6.586;2023-02-11T07:38:44;38.33;;;26.50;;
14316;SDS011;7242;50.858;6.586;2023-02-11T07:41:45;31.17;;;24.67;;
14316;SDS011;7242;50.858;6.586;2023-02-11T07:44:48;34.73;;;25.17;;
14316;SDS011;7242;50.858;6.586;2023-02-11T07:47:49;36.00;;;25.60;;
14316;SDS011;7242;50.858;6.586;2023-02-11T07:50:49;34.00;;;24.37;;
14316;SDS011;7242;50.858;6.586;2023-02-11T07:53:50;34.10;;;25.53;;
14316;SDS011;7242;50.858;6.586;2023-02-11T07:56:51;32.93;;;25.97;;
14316;SDS011;7242;50.858;6.586;2023-02-11T07:59:52;36.83;;;26.17;;
14316;SDS011;7242;50.858;6.586;2023-02-11T08:02:53;38.53;;;26.73;;
14316;SDS011;7242;50.858;6.586;2023-02-11T08:05:54;33.90;;;25.90;;
14316;SDS011;7242;50.858;6.586;2023-02-11T08:08:55;33.97;;;25.87;;
14316;SDS011;7242;50.858;6.586;2023-02-11T08:11:56;37.00;;;26.43;;
14316;SDS011;7242;50.858;6.586;2023-02-11T08:14:57;36.43;;;26.40;;
14316;SDS011;7242;50.858;6.586;2023-02-11T08:17:57;38.53;;;26.73;;
14316;SDS011;7242;50.858;6.586;2023-02-11T08:21:05;36.37;;;27.03;;
14316;SDS011;7242;50.858;6.586;2023-02-11T08:24:07;36.93;;;25.73;;
14316;SDS011;7242;50.858;6.586;2023-02-11T08:27:08;39.43;;;26.23;;
14316;SDS011;7242;50.858;6.586;2023-02-11T08:30:09;36.30;;;26.53;;
14316;SDS011;7242;50.858;6.586;2023-02-11T08:33:10;37.63;;;26.90;;
14316;SDS011;7242;50.858;6.586;2023-02-11T08:36:12;37.70;;;27.00;;
14316;SDS011;7242;50.858;6.586;2023-02-11T08:39:15;40.73;;;27.87;;
14316;SDS011;7242;50.858;6.586;2023-02-11T08:42:17;37.63;;;26.30;;
14316;SDS011;7242;50.858;6.586;2023-02-11T08:45:18;38.63;;;26.67;;
14316;SDS011;7242;50.858;6.586;2023-02-11T08:48:19;44.83;;;28.37;;
14316;SDS011;7242;50.858;6.586;2023-02-11T08:51:24;40.03;;;25.40;;
14316;SDS011;7242;50.858;6.586;2023-02-11T08:54:26;40.03;;;26.83;;
14316;SDS011;7242;50.858;6.586;2023-02-11T08:57:27;35.33;;;24.70;;
14316;SDS011;7242;50.858;6.586;2023-02-11T09:00:28;37.57;;;25.60;;
14316;SDS011;7242;50.858;6.586;2023-02-11T09:03:29;34.53;;;25.37;;
14316;SDS011;7242;50.858;6.586;2023-02-11T09:06:29;39.03;;;25.27;;
14316;SDS011;7242;50.858;6.586;2023-02-11T09:09:31;37.70;;;24.47;;
14316;SDS011;7242;50.858;6.586;2023-02-11T09:12:32;32.13;;;23.30;;
14316;SDS011;7242;50.858;6.586;2023-02-11T09:15:33;33.00;;;23.83;;
14316;SDS011;7242;50.858;6.586;2023-02-11T09:18:34;35.30;;;24.43;;
14316;SDS011;7242;50.858;6.586;2023-02-11T09:21:35;35.33;;;24.23;;
14316;SDS011;7242;50.858;6.586;2023-02-11T09:24:35;33.90;;;23.80;;
14316;SDS011;7242;50.858;6.586;2023-02-11T09:27:36;34.07;;;23.17;;
14316;SDS011;7242;50.858;6.586;2023-02-11T09:30:37;30.77;;;23.03;;
14316;SDS011;7242;50.858;6.586;2023-02-11T09:33:38;30.90;;;22.80;;
14316;SDS011;7242;50.858;6.586;2023-02-11T09:36:46;32.30;;;22.97;;
14316;SDS011;7242;50.858;6.586;2023-02-11T09:39:47;34.03;;;24.47;;
14316;SDS011;7242;50.858;6.586;2023-02-11T09:43:07;29.67;;;22.53;;
14316;SDS011;7242;50.858;6.586;2023-02-11T09:46:13;30.93;;;22.60;;
14316;SDS011;7242;50.858;6.586;2023-02-11T09:49:17;31.50;;;21.47;;
14316;SDS011;7242;50.858;6.586;2023-02-11T09:55:56;31.07;;;22.50;;
14316;SDS011;7242;50.858;6.586;2023-02-11T09:58:59;34.73;;;23.10;;
14316;SDS011;7242;50.858;6.586;2023-02-11T10:02:05;32.33;;;22.33;;
14316;SDS011;7242;50.858;6.586;2023-02-11T10:05:42;31.57;;;22.53;;
14316;SDS011;7242;50.858;6.586;2023-02-11T10:25:18;28.87;;;21.50;;
14316;SDS011;7242;50.858;6.586;2023-02-11T10:28:39;30.30;;;23.07;;
14316;SDS011;7242;50.858;6.586;2023-02-11T10:31:43;29.77;;;22.53;;
14316;SDS011;7242;50.858;6.586;2023-02-11T10:34:45;29.17;;;21.00;;
14316;SDS011;7242;50.858;6.586;2023-02-11T10:37:46;32.67;;;23.87;;
14316;SDS011;7242;50.858;6.586;2023-02-11T10:40:47;26.67;;;21.00;;
14316;SDS011;7242;50.858;6.586;2023-02-11T10:43:48;24.90;;;20.67;;
14316;SDS011;7242;50.858;6.586;2023-02-11T10:46:50;29.50;;;21.80;;
14316;SDS011;7242;50.858;6.586;2023-02-11T10:49:51;28.43;;;21.40;;
14316;SDS011;7242;50.858;6.586;2023-02-11T10:52:52;29.13;;;21.80;;
14316;SDS011;7242;50.858;6.586;2023-02-11T10:56:10;30.40;;;21.63;;
14316;SDS011;7242;50.858;6.586;2023-02-11T11:02:28;28.43;;;21.87;;
14316;SDS011;7242;50.858;6.586;2023-02-11T11:05:37;30.43;;;22.03;;
14316;SDS011;7242;50.858;6.586;2023-02-11T11:08:51;29.87;;;22.80;;
14316;SDS011;7242;50.858;6.586;2023-02-11T11:11:52;32.60;;;24.17;;
14316;SDS011;7242;50.858;6.586;2023-02-11T11:14:57;35.50;;;25.43;;
14316;SDS011;7242;50.858;6.586;2023-02-11T11:18:16;34.93;;;26.03;;
14316;SDS011;7242;50.858;6.586;2023-02-11T11:21:24;36.10;;;27.13;;
14316;SDS011;7242;50.858;6.586;2023-02-11T11:24:40;35.50;;;27.30;;
14316;SDS011;7242;50.858;6.586;2023-02-11T11:27:49;36.67;;;27.77;;
14316;SDS011;7242;50.858;6.586;2023-02-11T11:30:52;37.90;;;27.50;;
14316;SDS011;7242;50.858;6.586;2023-02-11T11:33:55;38.00;;;29.00;;
14316;SDS011;7242;50.858;6.586;2023-02-11T11:36:59;36.63;;;26.23;;
14316;SDS011;7242;50.858;6.586;2023-02-11T11:40:30;32.50;;;24.33;;
14316;SDS011;7242;50.858;6.586;2023-02-11T11:43:31;37.13;;;25.83;;
14316;SDS011;7242;50.858;6.586;2023-02-11T11:46:34;34.80;;;25.40;;
14316;SDS011;7242;50.858;6.586;2023-02-11T11:49:55;35.50;;;24.67;;
14316;SDS011;7242;50.858;6.586;2023-02-11T11:56:27;37.00;;;26.60;;
14316;SDS011;7242;50.858;6.586;2023-02-11T11:59:31;36.13;;;26.83;;
14316;SDS011;7242;50.858;6.586;2023-02-11T12:05:48;36.17;;;26.53;;
14316;SDS011;7242;50.858;6.586;2023-02-11T12:12:30;38.27;;;27.77;;
14316;SDS011;7242;50.858;6.586;2023-02-11T12:15:57;37.43;;;26.97;;
14316;SDS011;7242;50.858;6.586;2023-02-11T12:25:44;39.70;;;27.77;;
14316;SDS011;7242;50.858;6.586;2023-02-11T12:29:05;37.60;;;27.20;;
14316;SDS011;7242;50.858;6.586;2023-02-11T12:32:33;38.97;;;29.23;;
14316;SDS011;7242;50.858;6.586;2023-02-11T12:35:55;39.87;;;29.13;;
14316;SDS011;7242;50.858;6.586;2023-02-11T12:46:00;41.03;;;29.50;;
14316;SDS011;7242;50.858;6.586;2023-02-11T12:56:16;41.77;;;29.60;;
14316;SDS011;7242;50.858;6.586;2023-02-11T13:02:37;44.47;;;29.73;;
14316;SDS011;7242;50.858;6.586;2023-02-11T13:05:49;45.23;;;30.07;;
14316;SDS011;7242;50.858;6.586;2023-02-11T13:08:53;41.07;;;28.83;;
14316;SDS011;7242;50.858;6.586;2023-02-11T13:12:01;44.00;;;28.87;;
14316;SDS011;7242;50.858;6.586;2023-02-11T13:15:29;45.43;;;29.13;;
14316;SDS011;7242;50.858;6.586;2023-02-11T13:25:19;45.37;;;29.60;;
14316;SDS011;7242;50.858;6.586;2023-02-11T13:28:52;45.43;;;29.67;;
14316;SDS011;7242;50.858;6.586;2023-02-11T13:32:07;45.93;;;30.23;;
14316;SDS011;7242;50.858;6.586;2023-02-11T13:35:25;44.10;;;30.30;;
14316;SDS011;7242;50.858;6.586;2023-02-11T13:38:28;46.93;;;30.93;;
14316;SDS011;7242;50.858;6.586;2023-02-11T13:41:35;40.63;;;28.67;;
14316;SDS011;7242;50.858;6.586;2023-02-11T13:44:40;43.33;;;30.57;;
14316;SDS011;7242;50.858;6.586;2023-02-11T13:47:41;42.00;;;28.13;;
14316;SDS011;7242;50.858;6.586;2023-02-11T13:50:45;42.63;;;29.57;;
14316;SDS011;7242;50.858;6.586;2023-02-11T13:53:53;43.97;;;28.97;;
14316;SDS011;7242;50.858;6.586;2023-02-11T13:57:28;43.30;;;28.87;;
14316;SDS011;7242;50.858;6.586;2023-02-11T14:03:35;42.93;;;29.33;;
14316;SDS011;7242;50.858;6.586;2023-02-11T14:10:47;42.33;;;28.97;;
14316;SDS011;7242;50.858;6.586;2023-02-11T14:20:30;42.60;;;29.23;;
14316;SDS011;7242;50.858;6.586;2023-02-11T14:23:34;42.27;;;29.13;;
14316;SDS011;7242;50.858;6.586;2023-02-11T14:26:44;41.03;;;28.17;;
14316;SDS011;7242;50.858;6.586;2023-02-11T14:29:52;42.40;;;29.63;;
14316;SDS011;7242;50.858;6.586;2023-02-11T14:33:19;40.37;;;28.17;;
14316;SDS011;7242;50.858;6.586;2023-02-11T14:43:04;38.23;;;28.57;;
14316;SDS011;7242;50.858;6.586;2023-02-11T14:46:13;38.07;;;26.97;;
14316;SDS011;7242;50.858;6.586;2023-02-11T14:49:18;39.07;;;27.37;;
14316;SDS011;7242;50.858;6.586;2023-02-11T14:52:25;39.47;;;28.00;;
14316;SDS011;7242;50.858;6.586;2023-02-11T14:55:30;37.27;;;27.30;;
14316;SDS011;7242;50.858;6.586;2023-02-11T14:58:33;39.30;;;28.00;;
14316;SDS011;7242;50.858;6.586;2023-02-11T15:01:38;37.00;;;26.67;;
14316;SDS011;7242;50.858;6.586;2023-02-11T15:04:40;39.33;;;27.63;;
14316;SDS011;7242;50.858;6.586;2023-02-11T15:07:44;38.97;;;27.50;;
14316;SDS011;7242;50.858;6.586;2023-02-11T15:10:50;35.63;;;27.03;;
14316;SDS011;7242;50.858;6.586;2023-02-11T15:13:53;35.03;;;26.40;;
14316;SDS011;7242;50.858;6.586;2023-02-11T15:16:56;37.23;;;26.60;;
14316;SDS011;7242;50.858;6.586;2023-02-11T15:19:59;31.83;;;24.93;;
14316;SDS011;7242;50.858;6.586;2023-02-11T15:23:02;32.63;;;24.70;;
14316;SDS011;7242;50.858;6.586;2023-02-11T15:26:13;31.70;;;24.53;;
14316;SDS011;7242;50.858;6.586;2023-02-11T15:29:22;30.03;;;23.63;;
14316;SDS011;7242;50.858;6.586;2023-02-11T15:32:25;31.87;;;23.60;;
14316;SDS011;7242;50.858;6.586;2023-02-11T15:35:45;30.30;;;23.53;;
14316;SDS011;7242;50.858;6.586;2023-02-11T15:38:45;32.10;;;24.20;;
14316;SDS011;7242;50.858;6.586;2023-02-11T15:45:21;28.53;;;21.97;;
14316;SDS011;7242;50.858;6.586;2023-02-11T15:48:33;29.37;;;22.80;;
14316;SDS011;7242;50.858;6.586;2023-02-11T15:51:36;30.30;;;22.83;;
14316;SDS011;7242;50.858;6.586;2023-02-11T15:54:38;27.80;;;21.03;;
14316;SDS011;7242;50.858;6.586;2023-02-11T15:57:46;29.57;;;22.80;;
14316;SDS011;7242;50.858;6.586;2023-02-11T16:00:51;29.87;;;22.63;;
14316;SDS011;7242;50.858;6.586;2023-02-11T16:03:59;26.43;;;21.67;;
14316;SDS011;7242;50.858;6.586;2023-02-11T16:07:00;25.37;;;20.70;;
14316;SDS011;7242;50.858;6.586;2023-02-11T16:10:02;25.33;;;20.27;;
14316;SDS011;7242;50.858;6.586;2023-02-11T16:16:04;25.17;;;19.97;;
14316;SDS011;7242;50.858;6.586;2023-02-11T16:19:24;25.13;;;19.43;;
14316;SDS011;7242;50.858;6.586;2023-02-11T16:22:27;27.67;;;20.30;;
14316;SDS011;7242;50.858;6.586;2023-02-11T16:25:29;26.97;;;19.90;;
14316;SDS011;7242;50.858;6.586;2023-02-11T16:28:34;26.47;;;20.67;;
14316;SDS011;7242;50.858;6.586;2023-02-11T16:31:37;26.93;;;20.37;;
14316;SDS011;7242;50.858;6.586;2023-02-11T16:34:40;24.57;;;19.37;;
14316;SDS011;7242;50.858;6.586;2023-02-11T16:37:41;27.00;;;21.20;;
14316;SDS011;7242;50.858;6.586;2023-02-11T16:40:42;29.40;;;22.27;;
14316;SDS011;7242;50.858;6.586;2023-02-11T16:43:46;29.33;;;21.73;;
14316;SDS011;7242;50.858;6.586;2023-02-11T16:46:47;27.13;;;21.77;;
14316;SDS011;7242;50.858;6.586;2023-02-11T16:49:48;25.67;;;20.77;;
14316;SDS011;7242;50.858;6.586;2023-02-11T16:52:49;27.70;;;21.73;;
14316;SDS011;7242;50.858;6.586;2023-02-11T16:55:54;29.30;;;21.70;;
14316;SDS011;7242;50.858;6.586;2023-02-11T16:58:55;27.23;;;20.90;;
14316;SDS011;7242;50.858;6.586;2023-02-11T17:01:56;28.30;;;21.87;;
14316;SDS011;7242;50.858;6.586;2023-02-11T17:04:57;27.77;;;21.93;;
14316;SDS011;7242;50.858;6.586;2023-02-11T17:08:00;30.87;;;23.53;;
14316;SDS011;7242;50.858;6.586;2023-02-11T17:11:02;29.00;;;22.13;;
14316;SDS011;7242;50.858;6.586;2023-02-11T17:14:03;35.33;;;26.20;;
14316;SDS011;7242;50.858;6.586;2023-02-11T17:17:05;32.10;;;24.27;;
14316;SDS011;7242;50.858;6.586;2023-02-11T17:20:07;33.53;;;24.87;;
14316;SDS011;7242;50.858;6.586;2023-02-11T17:23:11;36.17;;;25.67;;
14316;SDS011;7242;50.858;6.586;2023-02-11T17:26:12;34.03;;;26.73;;
14316;SDS011;7242;50.858;6.586;2023-02-11T17:29:14;37.67;;;27.67;;
14316;SDS011;7242;50.858;6.586;2023-02-11T17:32:18;39.57;;;28.77;;
14316;SDS011;7242;50.858;6.586;2023-02-11T17:35:19;42.30;;;30.77;;
14316;SDS011;7242;50.858;6.586;2023-02-11T17:38:19;40.00;;;29.60;;
14316;SDS011;7242;50.858;6.586;2023-02-11T17:41:20;39.80;;;29.03;;
14316;SDS011;7242;50.858;6.586;2023-02-11T17:44:21;40.43;;;29.27;;
14316;SDS011;7242;50.858;6.586;2023-02-11T17:47:22;42.37;;;31.33;;
14316;SDS011;7242;50.858;6.586;2023-02-11T17:50:23;42.20;;;30.40;;
14316;SDS011;7242;50.858;6.586;2023-02-11T17:53:24;43.20;;;31.63;;
14316;SDS011;7242;50.858;6.586;2023-02-11T17:56:25;45.50;;;32.40;;
14316;SDS011;7242;50.858;6.586;2023-02-11T17:59:26;45.60;;;32.83;;
14316;SDS011;7242;50.858;6.586;2023-02-11T18:02:30;45.77;;;32.37;;
14316;SDS011;7242;50.858;6.586;2023-02-11T18:05:35;49.23;;;33.90;;
14316;SDS011;7242;50.858;6.586;2023-02-11T18:08:36;45.00;;;31.73;;
14316;SDS011;7242;50.858;6.586;2023-02-11T18:11:38;43.67;;;31.63;;
14316;SDS011;7242;50.858;6.586;2023-02-11T18:14:39;41.63;;;31.13;;
14316;SDS011;7242;50.858;6.586;2023-02-11T18:17:40;41.27;;;29.93;;
14316;SDS011;7242;50.858;6.586;2023-02-11T18:20:41;41.30;;;31.17;;
14316;SDS011;7242;50.858;6.586;2023-02-11T18:23:42;38.73;;;28.37;;
14316;SDS011;7242;50.858;6.586;2023-02-11T18:26:43;39.57;;;28.87;;
14316;SDS011;7242;50.858;6.586;2023-02-11T18:29:44;39.97;;;28.87;;
14316;SDS011;7242;50.858;6.586;2023-02-11T18:32:44;51.67;;;39.07;;
14316;SDS011;7242;50.858;6.586;2023-02-11T18:35:46;48.70;;;36.60;;
14316;SDS011;7242;50.858;6.586;2023-02-11T18:38:48;43.33;;;32.60;;
14316;SDS011;7242;50.858;6.586;2023-02-11T18:41:49;48.53;;;36.40;;
14316;SDS011;7242;50.858;6.586;2023-02-11T18:44:53;51.30;;;39.23;;
14316;SDS011;7242;50.858;6.586;2023-02-11T18:47:54;46.33;;;35.47;;
14316;SDS011;7242;50.858;6.586;2023-02-11T18:50:55;48.93;;;36.07;;
14316;SDS011;7242;50.858;6.586;2023-02-11T18:53:56;45.60;;;34.80;;
14316;SDS011;7242;50.858;6.586;2023-02-11T18:56:57;46.03;;;33.03;;
14316;SDS011;7242;50.858;6.586;2023-02-11T18:59:58;41.67;;;29.97;;
14316;SDS011;7242;50.858;6.586;2023-02-11T19:06:27;37.17;;;28.70;;
14316;SDS011;7242;50.858;6.586;2023-02-11T19:09:29;40.60;;;29.90;;
14316;SDS011;7242;50.858;6.586;2023-02-11T19:12:30;40.00;;;30.03;;
14316;SDS011;7242;50.858;6.586;2023-02-11T19:15:32;43.07;;;32.70;;
14316;SDS011;7242;50.858;6.586;2023-02-11T19:18:33;44.40;;;32.67;;
14316;SDS011;7242;50.858;6.586;2023-02-11T19:21:35;41.00;;;30.93;;
14316;SDS011;7242;50.858;6.586;2023-02-11T19:24:36;42.97;;;32.33;;
14316;SDS011;7242;50.858;6.586;2023-02-11T19:27:37;42.20;;;32.00;;
14316;SDS011;7242;50.858;6.586;2023-02-11T19:30:40;39.63;;;30.73;;
14316;SDS011;7242;50.858;6.586;2023-02-11T19:33:42;40.43;;;30.93;;
14316;SDS011;7242;50.858;6.586;2023-02-11T19:36:42;46.90;;;35.07;;
14316;SDS011;7242;50.858;6.586;2023-02-11T19:39:43;46.43;;;33.37;;
14316;SDS011;7242;50.858;6.586;2023-02-11T19:42:44;47.03;;;34.40;;
14316;SDS011;7242;50.858;6.586;2023-02-11T19:45:45;50.30;;;35.63;;
14316;SDS011;7242;50.858;6.586;2023-02-11T19:48:46;44.63;;;33.20;;
14316;SDS011;7242;50.858;6.586;2023-02-11T19:51:51;49.80;;;35.00;;
14316;SDS011;7242;50.858;6.586;2023-02-11T19:54:52;46.93;;;33.40;;
14316;SDS011;7242;50.858;6.586;2023-02-11T19:57:53;48.00;;;33.50;;
14316;SDS011;7242;50.858;6.586;2023-02-11T20:00:53;46.13;;;33.73;;
14316;SDS011;7242;50.858;6.586;2023-02-11T20:03:55;48.40;;;34.87;;
14316;SDS011;7242;50.858;6.586;2023-02-11T20:06:57;50.57;;;35.53;;